Time;durP1;ratioP1;P1;durP2;ratioP2;P2;SDS_P1;SDS_P2;PMS_P1;PMS_P2;Temp;Humidity;BMP_temperature;BMP_pressure;BME280_temperature;BME280_humidity;BME280_pressure;Samples;Min_cycle;Max_cycle;Signal;HPM_P1;HPM_P2
2023/06/28 00:00:14;;;;;;;4.28;0.80;;;;;;;19.96;92.97;100412.09;5065810;28;20040;-68
2023/06/28 00:02:39;;;;;;;2.45;0.70;;;;;;;19.87;92.48;100417.59;5060577;28;20043;-67
2023/06/28 00:05:07;;;;;;;1.58;0.73;;;;;;;19.87;90.21;100411.50;5056208;28;20071;-68
2023/06/28 00:07:33;;;;;;;1.63;0.80;;;;;;;19.93;88.60;100404.56;5054031;28;20037;-68
2023/06/28 00:09:58;;;;;;;2.05;1.00;;;;;;;20.01;89.35;100404.34;5069631;28;20039;-67
2023/06/28 00:12:24;;;;;;;1.73;1.13;;;;;;;19.94;89.64;100404.34;5064684;28;20033;-67
2023/06/28 00:14:49;;;;;;;1.88;0.70;;;;;;;19.89;88.25;100402.34;5063199;28;20025;-68
2023/06/28 00:17:15;;;;;;;1.65;0.80;;;;;;;19.94;86.02;100407.00;5064654;28;20028;-67
2023/06/28 00:19:47;;;;;;;1.42;0.82;;;;;;;19.97;85.42;100396.00;5066521;28;20035;-68
2023/06/28 00:22:14;;;;;;;3.13;0.90;;;;;;;20.02;87.07;100393.56;5070173;28;20084;-68
2023/06/28 00:24:39;;;;;;;2.63;0.90;;;;;;;19.97;89.31;100400.50;5063671;28;20054;-68
2023/06/28 00:27:06;;;;;;;5.57;0.82;;;;;;;19.84;90.93;100398.72;5074760;28;20048;-68
2023/06/28 00:29:31;;;;;;;1.42;0.70;;;;;;;19.69;92.23;100387.53;5068215;28;20395;-67
2023/06/28 00:31:56;;;;;;;3.25;0.85;;;;;;;19.57;93.16;100390.00;5068266;28;20036;-67
2023/06/28 00:34:22;;;;;;;1.30;1.08;;;;;;;19.56;92.83;100385.72;5072063;28;20039;-68
2023/06/28 00:36:47;;;;;;;2.70;0.98;;;;;;;19.63;93.29;100378.59;5066240;28;20481;-68
2023/06/28 00:39:13;;;;;;;4.60;0.98;;;;;;;19.80;87.05;100360.50;5073683;28;20032;-67
2023/06/28 00:41:38;;;;;;;1.92;0.98;;;;;;;20.13;81.93;100353.25;5071112;28;20024;-67
2023/06/28 00:44:05;;;;;;;2.35;1.10;;;;;;;20.28;79.92;100344.25;5064714;28;20111;-67
2023/06/28 00:46:30;;;;;;;1.58;0.75;;;;;;;20.25;82.10;100349.97;5074869;28;20035;-67
2023/06/28 00:48:56;;;;;;;4.47;1.00;;;;;;;20.16;84.09;100352.84;5074287;28;20028;-67
2023/06/28 00:51:22;;;;;;;2.92;0.88;;;;;;;20.02;87.05;100361.84;5070616;28;20033;-67
2023/06/28 00:53:48;;;;;;;3.20;0.85;;;;;;;19.86;88.61;100354.34;5072091;28;20079;-67
2023/06/28 00:56:14;;;;;;;1.85;0.70;;;;;;;19.67;89.87;100353.41;5081093;28;20036;-67
2023/06/28 00:58:39;;;;;;;2.05;0.90;;;;;;;19.53;90.82;100352.59;5072145;28;20567;-67
2023/06/28 01:01:06;;;;;;;2.00;0.98;;;;;;;19.43;91.62;100356.63;5075241;28;20040;-67
2023/06/28 01:03:31;;;;;;;1.80;0.75;;;;;;;19.29;92.94;100366.41;5077404;28;20078;-67
2023/06/28 01:05:58;;;;;;;2.85;0.88;;;;;;;19.15;94.13;100362.16;5068897;28;20056;-67
2023/06/28 01:08:25;;;;;;;1.50;1.00;;;;;;;19.07;94.10;100370.25;5075456;28;20443;-67
2023/06/28 01:10:52;;;;;;;3.75;0.75;;;;;;;19.06;94.19;100373.91;5069604;28;20116;-67
2023/06/28 01:13:18;;;;;;;5.70;0.75;;;;;;;19.06;93.69;100363.34;5070513;28;20060;-68
2023/06/28 01:15:43;;;;;;;2.08;0.90;;;;;;;19.02;92.57;100367.41;5063557;28;20142;-67
2023/06/28 01:18:09;;;;;;;1.52;0.70;;;;;;;19.21;87.00;100350.78;5067738;28;20116;-67
2023/06/28 01:20:34;;;;;;;3.83;0.68;;;;;;;19.57;82.79;100346.91;5063566;28;20044;-67
2023/06/28 01:23:01;;;;;;;1.23;1.10;;;;;;;19.69;78.36;100346.06;5071526;28;20090;-67
2023/06/28 01:25:26;;;;;;;1.52;0.93;;;;;;;19.89;77.49;100338.88;5071251;28;20039;-68
2023/06/28 01:27:52;;;;;;;4.53;0.80;;;;;;;19.87;78.53;100337.47;5076650;28;20025;-67
2023/06/28 01:30:23;;;;;;;2.22;0.73;;;;;;;19.86;79.55;100336.66;5066194;28;20133;-67
2023/06/28 01:32:49;;;;;;;1.42;0.70;;;;;;;19.78;80.67;100346.66;5076872;28;20027;-67
2023/06/28 01:35:14;;;;;;;2.17;1.00;;;;;;;19.63;81.80;100351.38;5068158;28;20020;-67
2023/06/28 01:37:41;;;;;;;1.75;0.68;;;;;;;19.51;83.56;100349.34;5074317;28;20040;-68
2023/06/28 01:40:09;;;;;;;3.65;1.02;;;;;;;19.43;84.89;100357.44;5071354;28;20017;-67
2023/06/28 01:42:36;;;;;;;1.98;1.00;;;;;;;19.31;85.35;100359.09;5073053;28;20029;-68
2023/06/28 01:45:01;;;;;;;1.80;0.80;;;;;;;19.22;85.82;100358.50;5069295;28;20190;-67
2023/06/28 01:47:27;;;;;;;5.13;0.80;;;;;;;19.17;85.78;100350.38;5060723;28;20162;-67
2023/06/28 01:49:53;;;;;;;1.58;0.90;;;;;;;19.13;86.98;100358.88;5068012;28;20037;-67
2023/06/28 01:52:18;;;;;;;3.13;1.10;;;;;;;18.97;86.97;100362.72;5074330;28;20032;-67
2023/06/28 01:54:44;;;;;;;1.65;1.23;;;;;;;19.01;87.35;100373.69;5067293;28;20066;-67
2023/06/28 01:57:11;;;;;;;1.85;0.70;;;;;;;19.01;88.87;100374.53;5074903;28;20050;-67
2023/06/28 01:59:37;;;;;;;2.85;0.88;;;;;;;18.97;89.53;100373.28;5070608;28;20024;-67
2023/06/28 02:02:03;;;;;;;6.55;1.85;;;;;;;18.90;89.93;100375.13;5074944;28;20035;-67
2023/06/28 02:04:28;;;;;;;3.45;1.00;;;;;;;18.82;89.64;100372.69;5068280;28;20469;-68
2023/06/28 02:06:54;;;;;;;1.75;0.77;;;;;;;18.84;88.82;100374.09;5070594;28;20070;-68
2023/06/28 02:09:19;;;;;;;2.00;0.85;;;;;;;19.01;84.50;100384.25;5058490;28;20469;-67
2023/06/28 02:11:45;;;;;;;2.72;0.80;;;;;;;19.66;76.66;100361.53;5065372;28;20047;-67
2023/06/28 02:14:10;;;;;;;1.08;0.52;;;;;;;19.98;72.29;100373.84;5062456;28;20028;-70
2023/06/28 02:16:37;;;;;;;2.53;1.10;;;;;;;20.22;71.83;100364.41;5067801;28;20028;-68
2023/06/28 02:19:03;;;;;;;1.92;0.55;;;;;;;20.24;70.89;100361.56;5064034;28;20017;-67
2023/06/28 02:21:28;;;;;;;1.73;0.80;;;;;;;20.19;70.93;100362.19;5066275;28;20404;-68
2023/06/28 02:23:54;;;;;;;1.20;0.63;;;;;;;20.23;70.71;100357.28;5071681;28;20120;-67
2023/06/28 02:26:19;;;;;;;4.07;0.73;;;;;;;20.28;70.18;100354.84;5072137;28;20036;-67
2023/06/28 02:28:45;;;;;;;2.38;0.63;;;;;;;20.29;69.68;100351.16;5065013;28;20032;-69
2023/06/28 02:31:10;;;;;;;2.17;0.70;;;;;;;20.31;69.56;100343.81;5077251;28;20036;-68
2023/06/28 02:33:35;;;;;;;1.55;0.80;;;;;;;20.25;68.84;100350.78;5059575;28;20033;-68
2023/06/28 02:36:01;;;;;;;2.55;0.77;;;;;;;20.20;69.94;100359.34;5076703;28;20036;-68
2023/06/28 02:38:26;;;;;;;1.65;0.60;;;;;;;20.14;70.51;100362.81;5073252;28;20178;-68
2023/06/28 02:40:52;;;;;;;3.10;0.80;;;;;;;20.13;71.42;100366.47;5076206;28;20120;-68
2023/06/28 02:43:17;;;;;;;3.78;0.80;;;;;;;20.01;74.22;100368.13;5067545;28;20035;-68
2023/06/28 02:45:42;;;;;;;2.15;0.90;;;;;;;19.83;75.87;100368.00;5075433;28;20020;-68
2023/06/28 02:48:08;;;;;;;0.98;0.50;;;;;;;19.66;77.40;100364.97;5070877;28;20380;-68
2023/06/28 02:50:33;;;;;;;3.85;0.82;;;;;;;19.52;79.56;100356.25;5072341;28;20055;-68
2023/06/28 02:52:59;;;;;;;3.08;0.77;;;;;;;19.36;81.11;100359.31;5066794;28;20161;-68
2023/06/28 02:55:24;;;;;;;3.53;0.90;;;;;;;19.23;81.81;100360.13;5073681;28;20502;-68
2023/06/28 02:57:50;;;;;;;3.60;0.60;;;;;;;19.21;82.33;100370.06;5064734;28;20024;-68
2023/06/28 03:00:16;;;;;;;2.08;0.70;;;;;;;19.21;82.78;100356.88;5075471;28;20492;-68
2023/06/28 03:02:41;;;;;;;1.45;0.60;;;;;;;19.18;83.23;100361.75;5072335;28;20096;-68
2023/06/28 03:05:07;;;;;;;2.38;1.40;;;;;;;19.13;83.66;100362.34;5061490;28;20063;-68
2023/06/28 03:07:33;;;;;;;2.03;1.05;;;;;;;19.10;85.13;100365.38;5068539;28;20062;-68
2023/06/28 03:09:58;;;;;;;2.35;0.90;;;;;;;19.00;85.72;100359.69;5072597;28;20531;-68
2023/06/28 03:12:24;;;;;;;1.20;0.60;;;;;;;18.96;85.46;100362.94;5071285;28;20032;-68
2023/06/28 03:14:49;;;;;;;3.20;1.30;;;;;;;18.92;85.71;100359.88;5071093;28;20028;-68
2023/06/28 03:17:17;;;;;;;2.28;0.90;;;;;;;18.90;85.34;100368.00;5064314;28;20043;-68
2023/06/28 03:19:42;;;;;;;1.88;1.10;;;;;;;18.93;85.71;100373.91;5065372;28;20480;-68
2023/06/28 03:22:08;;;;;;;2.72;0.65;;;;;;;18.95;85.43;100382.44;5065090;28;20056;-68
2023/06/28 03:24:33;;;;;;;3.53;0.70;;;;;;;18.93;86.14;100387.91;5063655;28;20041;-68
2023/06/28 03:26:59;;;;;;;1.65;0.57;;;;;;;18.89;85.45;100390.16;5070899;28;20024;-68
2023/06/28 03:29:24;;;;;;;1.98;0.80;;;;;;;18.90;84.55;100394.41;5072010;28;20044;-68
2023/06/28 03:31:50;;;;;;;2.13;1.00;;;;;;;19.01;83.62;100394.81;5069411;28;20111;-68
2023/06/28 03:34:16;;;;;;;1.40;0.80;;;;;;;19.09;83.25;100397.28;5069261;28;20064;-68
2023/06/28 03:36:43;;;;;;;1.30;0.77;;;;;;;19.13;83.71;100399.31;5074008;28;20384;-68
2023/06/28 03:39:09;;;;;;;3.10;0.63;;;;;;;19.06;83.30;100406.41;5076558;28;20111;-68
2023/06/28 03:41:34;;;;;;;4.03;0.80;;;;;;;19.07;83.36;100400.13;5066914;28;20053;-68
2023/06/28 03:44:00;;;;;;;1.65;0.77;;;;;;;19.04;84.16;100410.25;5075125;28;20064;-68
2023/06/28 03:46:25;;;;;;;2.45;0.60;;;;;;;19.02;82.39;100405.19;5070294;28;20119;-68
2023/06/28 03:48:50;;;;;;;1.42;0.63;;;;;;;19.35;76.87;100394.66;5074214;28;20036;-67
2023/06/28 03:51:16;;;;;;;1.88;0.60;;;;;;;19.72;73.68;100411.75;5067007;28;20032;-69
2023/06/28 03:53:41;;;;;;;1.10;0.52;;;;;;;19.83;73.84;100400.53;5070890;28;20458;-68
2023/06/28 03:56:07;;;;;;;1.15;0.80;;;;;;;19.78;74.14;100402.19;5066660;28;20564;-68
2023/06/28 03:58:32;;;;;;;1.70;0.77;;;;;;;19.74;75.60;100404.41;5071906;28;20036;-68
2023/06/28 04:00:58;;;;;;;2.13;0.65;;;;;;;19.72;77.46;100408.28;5069781;28;20066;-68
2023/06/28 04:03:23;;;;;;;1.15;0.52;;;;;;;19.63;78.79;100420.06;5068889;28;20029;-69
2023/06/28 04:05:48;;;;;;;1.77;0.95;;;;;;;19.53;80.08;100423.94;5064050;28;20037;-68
2023/06/28 04:08:14;;;;;;;1.58;0.90;;;;;;;19.48;80.75;100426.34;5081229;28;20365;-68
2023/06/28 04:10:42;;;;;;;1.58;0.90;;;;;;;19.49;81.98;100420.03;5076386;28;20036;-69
2023/06/28 04:13:07;;;;;;;1.23;0.70;;;;;;;19.50;82.51;100429.59;5078927;28;20081;-69
2023/06/28 04:15:33;;;;;;;1.80;0.80;;;;;;;19.49;82.96;100422.69;5076380;28;20032;-69
2023/06/28 04:17:58;;;;;;;1.60;0.80;;;;;;;19.51;84.16;100423.34;5069660;28;20489;-68
2023/06/28 04:20:24;;;;;;;2.15;0.60;;;;;;;19.50;84.63;100426.97;5075042;28;20104;-69
2023/06/28 04:22:49;;;;;;;1.80;0.60;;;;;;;19.44;84.64;100419.84;5068077;28;20478;-69
2023/06/28 04:25:14;;;;;;;1.35;0.63;;;;;;;19.42;84.69;100423.69;5080003;28;20035;-68
2023/06/28 04:27:40;;;;;;;2.50;0.90;;;;;;;19.39;85.82;100424.91;5076817;28;20039;-68
2023/06/28 04:30:06;;;;;;;3.80;0.80;;;;;;;19.33;86.92;100427.59;5074422;28;20060;-68
2023/06/28 04:32:32;;;;;;;1.85;0.90;;;;;;;19.29;86.85;100421.06;5072523;28;20047;-61
2023/06/28 04:34:59;;;;;;;1.35;0.68;;;;;;;19.32;87.22;100428.59;5074360;28;20024;-63
2023/06/28 04:37:27;;;;;;;1.15;0.50;;;;;;;19.32;87.57;100432.06;5080507;28;20032;-63
2023/06/28 04:39:56;;;;;;;2.88;0.88;;;;;;;19.31;87.87;100433.06;5069247;28;20068;-63
2023/06/28 04:42:21;;;;;;;2.35;0.80;;;;;;;19.26;87.50;100440.78;5067805;28;20387;-62
2023/06/28 04:44:47;;;;;;;1.15;0.65;;;;;;;19.25;85.79;100446.25;5073953;28;20032;-63
2023/06/28 04:47:15;;;;;;;2.05;0.90;;;;;;;19.29;85.64;100448.31;5075171;28;20024;-63
2023/06/28 04:49:48;;;;;;;1.63;0.63;;;;;;;19.34;86.96;100442.41;5066764;28;20400;-63
2023/06/28 04:52:15;;;;;;;2.67;0.88;;;;;;;19.35;86.35;100436.94;5072019;28;20434;-63
2023/06/28 04:54:41;;;;;;;3.85;1.20;;;;;;;19.36;86.44;100424.53;5066011;28;20162;-63
2023/06/28 04:57:07;;;;;;;7.60;0.73;;;;;;;19.42;85.08;100408.66;5073127;28;20037;-63
2023/06/28 04:59:32;;;;;;;3.00;0.93;;;;;;;19.47;85.23;100400.94;5062937;28;20020;-62
2023/06/28 05:01:58;;;;;;;1.90;0.55;;;;;;;19.55;83.50;100400.75;5071987;28;20035;-63
2023/06/28 05:04:24;;;;;;;4.30;0.90;;;;;;;19.67;83.92;100406.25;5061353;28;20392;-62
2023/06/28 05:06:51;;;;;;;2.08;0.90;;;;;;;19.75;83.23;100418.44;5071927;28;20117;-63
2023/06/28 05:09:18;;;;;;;3.22;0.95;;;;;;;19.79;82.72;100423.13;5070886;28;20383;-63
2023/06/28 05:11:44;;;;;;;1.20;0.75;;;;;;;19.82;82.26;100429.84;5070579;28;20033;-63
2023/06/28 05:14:10;;;;;;;2.05;0.55;;;;;;;19.88;77.74;100437.72;5073332;28;20061;-63
2023/06/28 05:16:36;;;;;;;2.03;0.77;;;;;;;20.10;73.56;100451.53;5079766;28;20036;-62
2023/06/28 05:19:02;;;;;;;2.10;1.00;;;;;;;20.16;72.75;100450.69;5075752;28;20115;-63
2023/06/28 05:21:28;;;;;;;3.72;1.30;;;;;;;20.15;72.66;100457.00;5070489;28;20135;-63
2023/06/28 05:23:54;;;;;;;3.28;0.98;;;;;;;20.25;70.27;100461.88;5067299;28;20043;-63
2023/06/28 05:26:20;;;;;;;3.28;0.50;;;;;;;20.36;67.88;100463.03;5072919;28;20047;-63
2023/06/28 05:28:46;;;;;;;2.13;0.80;;;;;;;20.41;68.73;100476.50;5069443;28;20473;-62
2023/06/28 05:31:12;;;;;;;2.65;1.05;;;;;;;20.39;68.29;100466.13;5068037;28;20036;-62
2023/06/28 05:33:40;;;;;;;2.72;0.90;;;;;;;20.34;69.76;100465.09;5067773;28;20032;-62
2023/06/28 05:36:06;;;;;;;2.20;0.50;;;;;;;20.28;69.43;100469.41;5066308;28;20063;-62
2023/06/28 05:38:32;;;;;;;1.67;0.90;;;;;;;20.33;69.50;100458.16;5089104;28;20385;-63
2023/06/28 05:41:15;;;;;;;3.33;0.80;;;;;;;20.36;67.09;100463.03;5084587;28;20467;-63
2023/06/28 05:43:44;;;;;;;1.60;0.63;;;;;;;20.40;68.19;100453.69;5076235;28;20085;-62
2023/06/28 05:46:10;;;;;;;1.40;0.50;;;;;;;20.41;69.12;100460.63;5081359;28;20074;-62
2023/06/28 05:48:36;;;;;;;3.67;0.80;;;;;;;20.34;69.15;100475.66;5090072;28;20059;-63
2023/06/28 05:51:01;;;;;;;2.58;0.85;;;;;;;20.30;70.48;100472.66;5092753;28;20391;-62
2023/06/28 05:53:27;;;;;;;3.45;0.70;;;;;;;20.30;71.53;100474.47;5090767;28;20079;-63
2023/06/28 05:55:52;;;;;;;3.17;0.60;;;;;;;20.33;72.16;100482.78;5086771;28;20024;-63
2023/06/28 05:58:20;;;;;;;2.67;1.00;;;;;;;20.39;74.85;100489.94;5086811;28;20032;-63
2023/06/28 06:00:46;;;;;;;4.50;0.60;;;;;;;20.37;75.04;100499.88;5086827;28;20028;-62
2023/06/28 06:03:12;;;;;;;2.38;0.52;;;;;;;20.41;76.38;100497.66;5092535;28;20372;-62
2023/06/28 06:05:37;;;;;;;2.55;0.60;;;;;;;20.41;76.20;100511.72;5091855;28;20040;-62
2023/06/28 06:08:04;;;;;;;1.48;0.80;;;;;;;20.44;76.17;100519.22;5092243;28;20042;-63
2023/06/28 06:10:30;;;;;;;1.63;0.90;;;;;;;20.37;75.03;100529.00;5088871;28;20035;-63
2023/06/28 06:12:55;;;;;;;4.43;0.70;;;;;;;20.34;74.24;100518.00;5061478;28;20032;-63
2023/06/28 06:15:21;;;;;;;2.95;0.70;;;;;;;20.37;71.36;100521.03;5070272;28;20101;-64
2023/06/28 06:17:47;;;;;;;3.10;0.70;;;;;;;20.44;68.41;100523.72;5066839;28;20025;-62
2023/06/28 06:20:16;;;;;;;1.70;0.70;;;;;;;20.47;67.43;100531.25;5064442;28;20039;-64
2023/06/28 06:22:44;;;;;;;6.38;0.80;;;;;;;20.52;65.90;100523.50;5065540;28;20094;-64
2023/06/28 06:25:10;;;;;;;2.47;0.80;;;;;;;20.67;64.80;100534.66;5063071;28;20034;-64
2023/06/28 06:27:36;;;;;;;2.67;0.43;;;;;;;20.71;62.89;100541.16;5066386;28;20115;-63
2023/06/28 06:30:01;;;;;;;1.15;0.60;;;;;;;20.62;64.38;100526.53;5071197;28;20029;-63
2023/06/28 06:32:27;;;;;;;3.33;0.68;;;;;;;20.67;64.35;100542.59;5069539;28;20048;-64
2023/06/28 06:34:53;;;;;;;3.72;0.70;;;;;;;20.71;64.13;100546.47;5061713;28;20082;-63
2023/06/28 06:37:20;;;;;;;4.57;0.80;;;;;;;20.70;64.05;100550.13;5061414;28;20142;-62
2023/06/28 06:39:45;;;;;;;2.38;0.73;;;;;;;20.63;64.45;100546.69;5062496;28;20123;-63
2023/06/28 06:42:11;;;;;;;3.35;0.80;;;;;;;20.61;65.15;100554.00;5071121;28;20553;-63
2023/06/28 06:44:36;;;;;;;1.95;0.60;;;;;;;20.61;64.42;100556.66;5075026;28;20029;-62
2023/06/28 06:47:03;;;;;;;2.00;0.70;;;;;;;20.61;63.46;100561.13;5089145;28;20034;-68
2023/06/28 06:49:29;;;;;;;2.30;0.73;;;;;;;20.64;63.68;100556.25;5073632;28;20025;-68
2023/06/28 06:51:56;;;;;;;1.52;0.55;;;;;;;20.69;63.03;100564.38;5059896;28;20082;-69
2023/06/28 06:54:24;;;;;;;4.57;0.57;;;;;;;20.70;61.97;100565.19;5066913;28;20037;-67
2023/06/28 06:56:50;;;;;;;3.70;0.50;;;;;;;20.69;62.40;100564.38;5070187;28;20029;-70
2023/06/28 06:59:19;;;;;;;3.40;0.50;;;;;;;20.78;63.10;100573.72;5075602;28;20474;-68
2023/06/28 07:01:45;;;;;;;1.40;0.60;;;;;;;20.80;63.19;100568.19;5090500;28;21642;-69
2023/06/28 07:04:11;;;;;;;2.08;0.70;;;;;;;20.78;63.32;100581.66;5079050;28;20478;-68
2023/06/28 07:06:36;;;;;;;1.13;0.50;;;;;;;20.81;63.27;100572.47;5085963;28;20032;-70
2023/06/28 07:09:02;;;;;;;3.00;0.75;;;;;;;20.84;63.66;100575.50;5090808;28;20111;-69
2023/06/28 07:11:28;;;;;;;2.03;1.05;;;;;;;20.83;62.74;100583.66;5090392;28;20032;-70
2023/06/28 07:13:53;;;;;;;1.15;0.47;;;;;;;20.77;62.63;100582.69;5088768;28;20563;-71
2023/06/28 07:16:19;;;;;;;1.98;0.73;;;;;;;20.77;62.39;100592.47;5088975;28;20027;-70
2023/06/28 07:18:44;;;;;;;2.25;0.70;;;;;;;20.74;62.91;100590.22;5090545;28;24023;-69
2023/06/28 07:21:12;;;;;;;2.63;0.40;;;;;;;20.80;62.85;100586.72;5086286;28;20055;-69
2023/06/28 07:23:37;;;;;;;1.17;0.38;;;;;;;20.80;62.36;100594.66;5090163;28;20093;-69
2023/06/28 07:26:02;;;;;;;2.95;0.47;;;;;;;20.83;62.39;100596.91;5090610;28;20032;-69
2023/06/28 07:28:28;;;;;;;0.98;0.35;;;;;;;20.75;62.22;100595.31;5083303;28;20056;-70
2023/06/28 07:30:55;;;;;;;1.58;0.32;;;;;;;20.81;62.51;100588.34;5088224;28;20087;-70
2023/06/28 07:33:24;;;;;;;3.65;0.50;;;;;;;20.85;61.85;100587.72;5090327;28;20098;-69
2023/06/28 07:35:51;;;;;;;3.20;0.30;;;;;;;20.87;62.26;100574.28;5075632;28;20451;-69
2023/06/28 07:38:18;;;;;;;0.90;0.30;;;;;;;20.90;62.08;100567.75;5086882;28;20024;-68
2023/06/28 07:40:47;;;;;;;2.72;0.30;;;;;;;20.90;61.31;100576.50;5067848;28;20361;-67
2023/06/28 07:43:14;;;;;;;0.63;0.20;;;;;;;21.03;61.46;100592.38;5057226;28;20450;-65
2023/06/28 07:45:40;;;;;;;4.53;0.22;;;;;;;21.08;60.90;100584.59;5069615;28;20040;-65
2023/06/28 07:48:06;;;;;;;1.48;0.20;;;;;;;21.08;60.12;100586.44;5087970;28;20403;-66
2023/06/28 07:50:32;;;;;;;1.10;0.20;;;;;;;21.13;59.41;100590.09;5093839;28;20036;-68
2023/06/28 07:52:57;;;;;;;2.47;0.30;;;;;;;21.18;60.21;100578.84;5094768;28;20104;-67
2023/06/28 07:55:23;;;;;;;2.67;0.40;;;;;;;21.40;60.69;100588.13;5088434;28;20044;-67
2023/06/28 07:57:48;;;;;;;1.05;0.40;;;;;;;21.61;61.52;100587.00;5094195;28;20063;-65
2023/06/28 08:00:14;;;;;;;1.20;0.50;;;;;;;21.75;62.60;100585.06;5090237;28;20391;-66
2023/06/28 08:02:40;;;;;;;3.08;0.40;;;;;;;21.74;63.08;100589.53;5085526;28;20047;-66
2023/06/28 08:05:07;;;;;;;0.63;0.20;;;;;;;21.71;62.36;100587.34;5068019;28;20033;-66
2023/06/28 08:07:34;;;;;;;0.98;0.30;;;;;;;21.75;61.06;100585.06;5066453;28;20063;-66
2023/06/28 08:09:59;;;;;;;2.15;0.30;;;;;;;21.88;60.54;100581.50;5067744;28;20031;-66
2023/06/28 08:12:26;;;;;;;5.97;0.82;;;;;;;22.02;59.72;100583.06;5068906;28;20036;-66
2023/06/28 08:14:54;;;;;;;3.58;0.40;;;;;;;22.24;59.48;100580.81;5065504;28;20499;-66
2023/06/28 08:17:20;;;;;;;0.70;0.30;;;;;;;22.45;58.89;100591.03;5066743;28;20032;-66
2023/06/28 08:19:45;;;;;;;5.13;0.40;;;;;;;22.48;59.51;100585.31;5065205;28;20040;-73
2023/06/28 08:22:12;;;;;;;3.53;0.30;;;;;;;22.84;60.15;100574.72;5073285;28;20048;-66
2023/06/28 08:24:38;;;;;;;0.50;0.25;;;;;;;23.34;58.82;100568.34;5071747;28;20020;-65
2023/06/28 08:27:04;;;;;;;2.55;0.22;;;;;;;23.78;56.50;100572.44;5085120;28;20383;-65
2023/06/28 08:29:29;;;;;;;2.25;0.20;;;;;;;24.00;55.56;100572.72;5080296;28;20480;-66
2023/06/28 08:31:54;;;;;;;2.22;0.20;;;;;;;23.99;55.57;100569.25;5093466;28;20111;-67
2023/06/28 08:34:20;;;;;;;1.60;0.30;;;;;;;24.22;55.38;100575.59;5087968;28;20042;-65
2023/06/28 08:36:45;;;;;;;1.30;0.20;;;;;;;24.43;54.62;100572.41;5093487;28;20036;-66
2023/06/28 08:39:11;;;;;;;3.33;1.30;;;;;;;24.51;53.84;100569.38;5093741;28;20434;-66
2023/06/28 08:41:37;;;;;;;1.30;0.38;;;;;;;24.64;53.37;100574.44;5087530;28;20123;-67
2023/06/28 08:44:06;;;;;;;0.45;0.10;;;;;;;24.66;52.34;100563.56;5072825;28;20051;-66
2023/06/28 08:46:31;;;;;;;3.60;0.20;;;;;;;24.50;53.54;100558.97;5091071;28;20035;-66
2023/06/28 08:48:59;;;;;;;0.70;0.17;;;;;;;24.46;53.62;100556.75;5085450;28;20388;-66
2023/06/28 08:51:24;;;;;;;1.40;0.20;;;;;;;24.51;54.69;100563.25;5067558;28;20036;-67
2023/06/28 08:53:51;;;;;;;1.00;0.10;;;;;;;24.55;53.94;100551.91;5085249;28;20437;-66
2023/06/28 08:56:17;;;;;;;0.10;0.05;;;;;;;24.46;54.21;100553.28;5065790;28;20029;-67
2023/06/28 08:58:42;;;;;;;0.45;0.10;;;;;;;24.30;54.95;100554.81;5090393;28;20486;-67
2023/06/28 09:01:08;;;;;;;0.70;0.10;;;;;;;24.60;55.02;100557.31;5089903;28;20551;-67
2023/06/28 09:03:40;;;;;;;0.35;0.10;;;;;;;25.04;53.20;100550.53;5078480;28;20039;-67
2023/06/28 09:06:06;;;;;;;0.68;0.10;;;;;;;25.02;53.06;100559.81;5078222;28;20075;-67
2023/06/28 09:08:33;;;;;;;0.35;0.10;;;;;;;24.71;53.33;100559.13;5081244;28;20041;-66
2023/06/28 09:11:00;;;;;;;0.45;0.10;;;;;;;24.93;53.50;100561.19;5085059;28;20100;-66
2023/06/28 09:13:27;;;;;;;0.00;0.00;;;;;;;25.06;52.60;100567.06;5090438;28;20036;-67
2023/06/28 09:15:54;;;;;;;0.38;0.00;;;;;;;25.03;52.51;100561.41;5092946;28;20024;-68
2023/06/28 09:18:19;;;;;;;0.20;0.00;;;;;;;25.21;52.01;100563.88;5092928;28;20036;-67
2023/06/28 09:20:54;;;;;;;2.95;0.10;;;;;;;24.95;51.33;100557.22;5073854;28;20044;-68
2023/06/28 09:23:31;;;;;;;0.45;0.00;;;;;;;24.55;50.64;100559.88;5088712;28;20032;-69
2023/06/28 09:25:56;;;;;;;0.38;0.00;;;;;;;24.37;51.49;100560.00;5089808;28;20509;-68
2023/06/28 09:28:35;;;;;;;0.30;0.00;;;;;;;24.29;51.91;100568.34;5070894;28;20028;-67
2023/06/28 09:31:04;;;;;;;0.20;0.00;;;;;;;24.60;51.98;100551.16;5078249;28;20503;-67
2023/06/28 09:33:31;;;;;;;0.20;0.03;;;;;;;24.77;53.16;100549.41;5091949;28;20472;-68
2023/06/28 09:35:57;;;;;;;1.00;0.22;;;;;;;25.02;52.42;100559.81;5092714;28;20032;-67
2023/06/28 09:38:24;;;;;;;0.32;0.00;;;;;;;24.95;52.37;100562.56;5092702;28;20399;-67
2023/06/28 09:40:56;;;;;;;0.17;0.00;;;;;;;24.82;51.62;100557.50;5087802;28;20039;-67
2023/06/28 09:43:23;;;;;;;0.10;0.00;;;;;;;24.84;51.20;100557.25;5076292;28;20115;-68
2023/06/28 09:45:49;;;;;;;0.22;0.00;;;;;;;25.33;50.17;100551.31;5092260;28;20111;-67
2023/06/28 09:48:14;;;;;;;0.22;0.00;;;;;;;25.60;49.21;100550.69;5085803;28;20131;-67
2023/06/28 09:50:45;;;;;;;3.35;0.00;;;;;;;25.65;49.68;100553.47;5090474;28;20121;-67
2023/06/28 09:53:13;;;;;;;0.00;0.00;;;;;;;25.56;49.72;100554.88;5092729;28;20117;-67
2023/06/28 09:55:43;;;;;;;0.20;0.00;;;;;;;25.49;48.89;100556.91;5087902;28;20118;-67
2023/06/28 09:58:15;;;;;;;0.00;0.00;;;;;;;25.51;46.41;100541.47;5068396;28;20038;-66
2023/06/28 10:00:43;;;;;;;1.70;0.00;;;;;;;25.09;45.48;100544.44;5071095;28;20033;-66
2023/06/28 10:03:10;;;;;;;0.00;0.00;;;;;;;24.84;46.24;100546.59;5091791;28;20086;-67
2023/06/28 10:05:37;;;;;;;0.47;0.00;;;;;;;25.06;45.23;100550.25;5090862;28;20032;-66
2023/06/28 10:08:06;;;;;;;0.10;0.00;;;;;;;24.67;44.64;100544.66;5086550;28;20027;-65
2023/06/28 10:10:34;;;;;;;0.50;0.00;;;;;;;24.83;44.96;100544.97;5086971;28;20036;-66
2023/06/28 10:13:02;;;;;;;5.60;0.00;;;;;;;25.03;44.96;100532.09;5090393;28;20074;-66
2023/06/28 10:15:34;;;;;;;0.85;0.28;;;;;;;25.57;45.91;100538.63;5086059;28;20027;-66
2023/06/28 10:18:00;;;;;;;1.00;0.00;;;;;;;25.88;45.98;100537.31;5091771;28;20024;-67
2023/06/28 10:20:25;;;;;;;0.20;0.00;;;;;;;26.23;46.63;100542.38;5091031;28;20050;-66
2023/06/28 10:22:51;;;;;;;0.08;0.00;;;;;;;25.91;44.51;100539.50;5076821;28;20028;-66
2023/06/28 10:25:18;;;;;;;0.28;0.00;;;;;;;25.95;44.71;100537.97;5090473;28;20050;-67
2023/06/28 10:27:44;;;;;;;0.10;0.00;;;;;;;25.91;43.83;100542.16;5089568;28;20491;-66
2023/06/28 10:30:10;;;;;;;0.10;0.00;;;;;;;25.40;44.19;100541.31;5091767;28;20066;-67
2023/06/28 10:32:37;;;;;;;0.00;0.00;;;;;;;25.25;43.67;100538.34;5091254;28;20401;-65
2023/06/28 10:35:06;;;;;;;1.55;0.80;;;;;;;25.28;43.91;100551.22;5091915;28;20119;-66
2023/06/28 10:37:31;;;;;;;0.93;0.20;;;;;;;25.14;43.14;100563.22;5083623;28;20042;-66
2023/06/28 10:39:58;;;;;;;0.65;0.00;;;;;;;25.27;44.12;100554.13;5091037;28;20032;-65
2023/06/28 10:42:24;;;;;;;2.42;0.00;;;;;;;25.61;42.35;100565.63;5070038;28;20065;-66
2023/06/28 10:44:57;;;;;;;3.15;0.05;;;;;;;25.44;41.98;100566.44;5090478;28;20455;-67
2023/06/28 10:47:23;;;;;;;0.75;0.00;;;;;;;25.26;42.94;100549.84;5091525;28;20059;-67
2023/06/28 10:50:10;;;;;;;0.00;0.00;;;;;;;25.01;43.05;100548.31;5091053;28;20476;-65
2023/06/28 10:52:55;;;;;;;2.63;0.00;;;;;;;25.09;41.78;100558.59;5087244;28;20051;-65
2023/06/28 10:55:29;;;;;;;0.50;0.00;;;;;;;25.14;42.63;100553.34;5090088;28;20032;-66
2023/06/28 10:58:08;;;;;;;0.10;0.00;;;;;;;25.24;44.25;100550.06;5083512;28;20127;-66
2023/06/28 11:00:36;;;;;;;0.10;0.00;;;;;;;25.53;42.51;100563.38;5090715;28;20024;-66
2023/06/28 11:03:04;;;;;;;0.38;0.00;;;;;;;25.06;43.01;100568.91;5068374;28;20058;-68
2023/06/28 11:05:38;;;;;;;0.20;0.00;;;;;;;25.00;44.03;100561.88;5082833;28;20488;-69
2023/06/28 11:08:37;;;;;;;0.30;0.10;;;;;;;25.06;42.15;100558.25;5087308;28;20081;-68
2023/06/28 11:11:02;;;;;;;0.22;0.00;;;;;;;25.24;43.27;100552.72;5070409;28;20290;-69
2023/06/28 11:13:46;;;;;;;0.20;0.00;;;;;;;25.28;43.48;100534.41;5089736;28;20367;-69
2023/06/28 11:16:15;;;;;;;0.73;0.00;;;;;;;25.44;43.01;100534.44;5066509;28;20041;-69
2023/06/28 11:18:41;;;;;;;2.83;0.00;;;;;;;25.67;42.85;100538.03;5084738;28;20435;-69
2023/06/28 11:21:14;;;;;;;0.20;0.00;;;;;;;25.75;41.69;100535.78;5062189;28;20215;-69